Ocean Beaut — WDD7485 — position and weather

sailwx.info

Track history (hours):
 
Tides and Currents Weather Stations Pressure Air Temp Water Temp Dewpoint Dewpoint Depression Visibility Wind Speed Wind Dir Waves Ship Positions

Ocean Beaut

Owner: John Moreland Fishing Inc., Astoria, OR. More information available from US FCC via Universal Licensing System.

Last reported at 2018-Feb-25 12:00 UTC. Time now 2018-Feb-25 12:04 UTC.
Position N 46°12' W 123°48'.

Length 20 m.

Type: Fishing. MMSI: 367187080.

Date/timePositionNaut miles runAvg speedWind from/ knotsBaromVisibWave heightAir tempDewpointWater temp
2018-Feb-25 12:00N 46°12' W 123°48'0 0.0
2018-Feb-25 11:18N 46°12' W 123°48'0 0.0
2018-Feb-25 11:00N 46°12' W 123°48'0 0.0
2018-Feb-25 10:30N 46°12' W 123°48'0 0.0
2018-Feb-25 10:00N 46°12' W 123°48'0 0.0
2018-Feb-25 09:30N 46°12' W 123°48'0 0.0
2018-Feb-25 09:00N 46°12' W 123°48'0 0.0
2018-Feb-25 08:30N 46°12' W 123°48'0 0.0
2018-Feb-25 08:00N 46°12' W 123°48'0 0.0
2018-Feb-25 07:30N 46°12' W 123°48'0 0.0
2018-Feb-25 07:00N 46°12' W 123°48'0 0.0
2018-Feb-25 06:30N 46°12' W 123°48'0 0.0
2018-Feb-25 05:39N 46°12' W 123°48'0 0.0
2018-Feb-25 05:24N 46°12' W 123°48'0 0.0
2018-Feb-25 05:00N 46°12' W 123°48'0 0.0
2018-Feb-25 04:30N 46°12' W 123°48'0 0.0
2018-Feb-25 04:00N 46°12' W 123°48'0 0.0
2018-Feb-25 03:24N 46°12' W 123°48'0 0.0
2018-Feb-25 03:00N 46°12' W 123°48'0 0.0
2018-Feb-25 02:30N 46°12' W 123°48'0 0.0
2018-Feb-25 02:00N 46°12' W 123°48'0 0.0
2018-Feb-25 01:30N 46°12' W 123°48'0 0.0
2018-Feb-25 01:00N 46°12' W 123°48'0 0.0
2018-Feb-25 00:30N 46°12' W 123°48'0 0.0
2018-Feb-25 00:00N 46°12' W 123°48'0 0.0
2018-Feb-24 23:30N 46°12' W 123°48'0 0.0
2018-Feb-24 22:51N 46°12' W 123°48'0 0.0
2018-Feb-24 22:30N 46°12' W 123°48'0 0.0
2018-Feb-24 22:00N 46°12' W 123°48'0 0.0
2018-Feb-24 21:30N 46°12' W 123°48'0 0.0
2018-Feb-24 21:00N 46°12' W 123°48'0 0.0
2018-Feb-24 20:30N 46°12' W 123°48'0 0.0
2018-Feb-24 20:00N 46°12' W 123°48'0 0.0
2018-Feb-24 19:30N 46°12' W 123°48'0 0.0
2018-Feb-24 19:00N 46°12' W 123°48'0 0.0
2018-Feb-24 18:30N 46°12' W 123°48'0 0.0
2018-Feb-24 18:00N 46°12' W 123°48'0 0.0
2018-Feb-24 17:30N 46°12' W 123°48'0 0.0
2018-Feb-24 17:00N 46°12' W 123°48'0 0.0
2018-Feb-24 16:30N 46°12' W 123°48'0 0.0
2018-Feb-24 16:00N 46°12' W 123°48'0 0.0
2018-Feb-24 15:24N 46°12' W 123°48'0 0.0
2018-Feb-24 15:00N 46°12' W 123°48'0 0.0
2018-Feb-24 14:30N 46°12' W 123°48'0 0.0
2018-Feb-24 14:00N 46°12' W 123°48'0 0.0
2018-Feb-24 13:30N 46°12' W 123°48'0 0.0
2018-Feb-24 12:33N 46°12' W 123°48'0 0.0
2018-Feb-24 12:30N 46°12' W 123°48'0 0.0
2018-Feb-24 12:00N 46°12' W 123°48'0 0.0
2018-Feb-24 11:30N 46°12' W 123°48'0 0.0
2018-Feb-24 11:00N 46°12' W 123°48'0 0.0
2018-Feb-24 10:30N 46°12' W 123°48'0 0.0
2018-Feb-24 10:00N 46°12' W 123°48'0 0.0
2018-Feb-24 09:30N 46°12' W 123°48'0 0.0
2018-Feb-24 09:00N 46°12' W 123°48'0 0.0
2018-Feb-24 08:30N 46°12' W 123°48'0 0.0
2018-Feb-24 08:00N 46°12' W 123°48'0 0.0
2018-Feb-24 07:30N 46°12' W 123°48'0 0.0
2018-Feb-24 07:00N 46°12' W 123°48'0 0.0
2018-Feb-24 06:30N 46°12' W 123°48'0 0.0
2018-Feb-24 06:00N 46°12' W 123°48'0 0.0
2018-Feb-24 05:30N 46°12' W 123°48'0 0.0
2018-Feb-24 05:00N 46°12' W 123°48'0 0.0
2018-Feb-24 04:30N 46°12' W 123°48'0 0.0
2018-Feb-24 04:00N 46°12' W 123°48'0 0.0
2018-Feb-24 03:30N 46°12' W 123°48'0 0.0
2018-Feb-24 03:00N 46°12' W 123°48'0 0.0
2018-Feb-24 02:30N 46°12' W 123°48'0 0.0
2018-Feb-24 02:00N 46°12' W 123°48'0 0.0
2018-Feb-24 01:11N 46°12' W 123°48'0 0.0
2018-Feb-24 00:47N 46°12' W 123°48'1 4.4
2018-Feb-24 00:30N 46°12' W 123°50'3 5.2
2018-Feb-24 00:00N 46°11' W 123°54'4 7.4
2018-Feb-23 23:30N 46°13' W 123°58'5 6.8
2018-Feb-23 22:45N 46°15' W 124°05'2 7.6
2018-Feb-23 22:29N 46°14' W 124°07'4 7.8
2018-Feb-23 22:01N 46°13' W 124°13'4 8.1
2018-Feb-23 21:30N 46°13' W 124°19'4 7.2
2018-Feb-23 21:00N 46°14' W 124°24'6 6.3
2018-Feb-23 20:06N 46°13' W 124°32'0 3.1
2018-Feb-23 20:00N 46°13' W 124°32'2 3.6
2018-Feb-23 19:30N 46°13' W 124°35'3 6.6
2018-Feb-23 19:00N 46°12' W 124°39'2 4.6
2018-Feb-23 18:30N 46°10' W 124°41'0 0.2
2018-Feb-23 17:59N 46°10' W 124°41'1 2.3
2018-Feb-23 17:29N 46°09' W 124°42'1 2.3
2018-Feb-23 17:00N 46°08' W 124°43'1 2.2
2018-Feb-23 16:30N 46°07' W 124°44'1 2.2
2018-Feb-23 16:00N 46°06' W 124°45'1 2.2
2018-Feb-23 15:30N 46°05' W 124°46'1 2.2
2018-Feb-23 14:57N 46°05' W 124°47'2 3.1
2018-Feb-23 14:21N 46°04' W 124°50'7 4.0
2018-Feb-23 12:37N 46°10' W 124°45'1 6.6
2018-Feb-23 12:27N 46°11' W 124°44'3 5.6
2018-Feb-23 11:59N 46°14' W 124°42'3 6.7
2018-Feb-23 11:30N 46°17' W 124°40'1 1.1
2018-Feb-23 10:48N 46°17' W 124°39'0 0.6
2018-Feb-23 10:21N 46°16' W 124°39'1 2.1
2018-Feb-23 10:00N 46°17' W 124°40'2 2.0
2018-Feb-23 09:15N 46°18' W 124°41'1 2.2
2018-Feb-23 09:00N 46°18' W 124°42'1 2.2
2018-Feb-23 08:30N 46°18' W 124°43'1 2.5
2018-Feb-23 07:59N 46°18' W 124°45'2 1.3
2018-Feb-23 06:03N 46°19' W 124°42'0 2.1
2018-Feb-23 05:53N 46°19' W 124°41'1 2.1
2018-Feb-23 05:30N 46°18' W 124°40'1 2.4
2018-Feb-23 05:00N 46°17' W 124°39'1 2.2
2018-Feb-23 04:30N 46°17' W 124°38'1 2.3
2018-Feb-23 03:59N 46°16' W 124°37'0 0.3
2018-Feb-23 03:27N 46°16' W 124°37'2 4.3
2018-Feb-23 03:01N 46°18' W 124°38'1 2.8
2018-Feb-23 02:29N 46°19' W 124°39'0 0.1
2018-Feb-23 02:00N 46°19' W 124°40'2 2.2
2018-Feb-23 01:15N 46°18' W 124°42'1 2.1
2018-Feb-23 01:00N 46°18' W 124°42'1 2.2
2018-Feb-23 00:28N 46°18' W 124°44'1 1.0
2018-Feb-22 23:33N 46°17' W 124°45'0 2.1
2018-Feb-22 23:28N 46°17' W 124°45'3 2.1
2018-Feb-22 22:09N 46°19' W 124°42'0 2.3
2018-Feb-22 22:00N 46°18' W 124°41'1 2.3
2018-Feb-22 21:25N 46°18' W 124°40'1 3.3
2018-Feb-22 21:00N 46°16' W 124°39'0 0.7
2018-Feb-22 20:28N 46°17' W 124°39'1 2.0
2018-Feb-22 19:57N 46°18' W 124°40'1 2.3
2018-Feb-22 19:30N 46°18' W 124°41'2 2.0
2018-Feb-22 18:39N 46°18' W 124°43'0 2.2
2018-Feb-22 18:30N 46°18' W 124°44'1 2.6
2018-Feb-22 17:59N 46°17' W 124°45'0 0.9
2018-Feb-22 17:30N 46°17' W 124°45'3 2.0
2018-Feb-22 16:12N 46°18' W 124°42'0 2.2
2018-Feb-22 16:00N 46°18' W 124°41'1 2.2
2018-Feb-22 15:30N 46°18' W 124°40'0 0.4
2018-Feb-22 15:00N 46°18' W 124°40'3 5.1
2018-Feb-22 14:30N 46°20' W 124°40'2 4.9
2018-Feb-22 14:00N 46°23' W 124°41'3 5.2
2018-Feb-22 13:29N 46°25' W 124°41'2 4.9
2018-Feb-22 13:00N 46°28' W 124°41'3 4.2
2018-Feb-22 12:23N 46°30' W 124°40'1 1.8
2018-Feb-22 12:00N 46°31' W 124°40'1 1.3
2018-Feb-22 11:23N 46°31' W 124°39'1 2.4
2018-Feb-22 10:57N 46°32' W 124°38'1 2.3
2018-Feb-22 10:30N 46°33' W 124°37'0 0.4
2018-Feb-22 10:00N 46°33' W 124°37'1 2.3
2018-Feb-22 09:30N 46°32' W 124°38'1 2.4
2018-Feb-22 09:01N 46°31' W 124°40'1 2.7
2018-Feb-22 08:30N 46°31' W 124°41'1 1.2
2018-Feb-22 07:32N 46°31' W 124°39'0 3.7
2018-Feb-22 07:30N 46°30' W 124°39'1 0.8
2018-Feb-22 06:47N 46°30' W 124°40'1 2.3
2018-Feb-22 06:30N 46°31' W 124°41'1 2.4
2018-Feb-22 06:00N 46°32' W 124°41'1 2.5
2018-Feb-22 05:30N 46°33' W 124°41'1 1.5
2018-Feb-22 04:59N 46°34' W 124°41'1 2.1
2018-Feb-22 04:30N 46°33' W 124°41'1 2.1
2018-Feb-22 04:00N 46°32' W 124°41'1 2.2
2018-Feb-22 03:30N 46°31' W 124°41'1 2.3
2018-Feb-22 03:00N 46°30' W 124°40'2 3.6
2018-Feb-22 02:30N 46°28' W 124°39'4 8.0
2018-Feb-22 02:00N 46°26' W 124°34'4 7.7
2018-Feb-22 01:30N 46°24' W 124°30'4 8.0
2018-Feb-22 01:00N 46°21' W 124°25'4 8.3
2018-Feb-22 00:30N 46°18' W 124°21'4 8.4
2018-Feb-22 00:00N 46°16' W 124°16'4 8.3
2018-Feb-21 23:29N 46°13' W 124°11'4 7.8
2018-Feb-21 23:00N 46°15' W 124°06'4 7.2
2018-Feb-21 22:30N 46°15' W 124°01'4 7.6
2018-Feb-21 22:00N 46°13' W 123°57'4 7.6
2018-Feb-21 21:30N 46°11' W 123°52'0 0.7
2018-Feb-21 21:00N 46°11' W 123°51'0 0.0
2018-Feb-21 20:30N 46°11' W 123°51'0 0.0
2018-Feb-21 20:00N 46°11' W 123°51'1 1.6
2018-Feb-21 19:28N 46°12' W 123°50'2 3.1
2018-Feb-21 18:59N 46°12' W 123°48'0 0.0
2018-Feb-21 18:26N 46°12' W 123°48'0 0.0
2018-Feb-21 17:50N 46°12' W 123°48'0 0.0
2018-Feb-21 17:29N 46°12' W 123°48'0 0.0
2018-Feb-21 16:59N 46°12' W 123°48'0 0.0
2018-Feb-21 16:29N 46°12' W 123°48'0 0.0
2018-Feb-21 15:59N 46°12' W 123°48'0 0.0
2018-Feb-21 15:29N 46°12' W 123°48'0 0.0
2018-Feb-21 14:59N 46°12' W 123°48'0 0.0
2018-Feb-21 14:29N 46°12' W 123°48'0 0.0
2018-Feb-21 13:59N 46°12' W 123°48'0 0.0
2018-Feb-21 13:29N 46°12' W 123°48'0 0.0
2018-Feb-21 12:59N 46°12' W 123°48'0 0.0
2018-Feb-21 12:29N 46°12' W 123°48'0 0.0
2018-Feb-21 11:59N 46°12' W 123°48'0 0.0
2018-Feb-21 11:29N 46°12' W 123°48'0 0.0
2018-Feb-21 10:59N 46°12' W 123°48'0 0.0
2018-Feb-21 10:29N 46°12' W 123°48'0 0.0
2018-Feb-21 09:59N 46°12' W 123°48'0 0.0
2018-Feb-21 09:29N 46°12' W 123°48'0 0.0
2018-Feb-21 08:59N 46°12' W 123°48'0 0.0
2018-Feb-21 08:14N 46°12' W 123°48'0 0.0
2018-Feb-21 07:59N 46°12' W 123°48'0 0.0
2018-Feb-21 07:26N 46°12' W 123°48'0 0.0
2018-Feb-21 06:32N 46°12' W 123°48'0 0.0
2018-Feb-21 06:29N 46°12' W 123°48'0 0.0
2018-Feb-21 05:59N 46°12' W 123°48'0 0.0
2018-Feb-21 05:29N 46°12' W 123°48'0 0.0
2018-Feb-21 04:59N 46°12' W 123°48'0 0.0
2018-Feb-21 04:29N 46°12' W 123°48'0 0.0
2018-Feb-21 03:56N 46°12' W 123°48'0 0.0
2018-Feb-21 03:29N 46°12' W 123°48'0 0.0
2018-Feb-21 02:59N 46°12' W 123°48'0 0.0
2018-Feb-21 02:29N 46°12' W 123°48'0 0.0
2018-Feb-21 01:59N 46°12' W 123°48'0 0.0
2018-Feb-21 01:29N 46°12' W 123°48'0 0.0
2018-Feb-21 00:59N 46°12' W 123°48'0 0.0
2018-Feb-21 00:29N 46°12' W 123°48'0 0.0
2018-Feb-20 23:59N 46°12' W 123°48'0 0.0
2018-Feb-20 23:02N 46°12' W 123°48'0 0.0
2018-Feb-20 22:56N 46°12' W 123°48'0 0.0
2018-Feb-20 22:23N 46°12' W 123°48'0 0.0
2018-Feb-20 21:59N 46°12' W 123°48'0 0.0
2018-Feb-20 21:29N 46°12' W 123°48'0 0.0
2018-Feb-20 20:59N 46°12' W 123°48'0 0.0
2018-Feb-20 20:29N 46°12' W 123°48'0 0.0
2018-Feb-20 19:59N 46°12' W 123°48'0 0.0
2018-Feb-20 19:29N 46°12' W 123°48'0 0.0
2018-Feb-20 18:53N 46°12' W 123°48'0 0.0
2018-Feb-20 18:29N 46°12' W 123°48'0 0.0
2018-Feb-20 17:59N 46°12' W 123°48'0 0.0
2018-Feb-20 17:29N 46°12' W 123°48'0 0.0
2018-Feb-20 16:59N 46°12' W 123°48'0 0.0
2018-Feb-20 16:29N 46°12' W 123°48'0 0.0
2018-Feb-20 15:59N 46°12' W 123°48'0 0.0
2018-Feb-20 15:26N 46°12' W 123°48'0 0.0
2018-Feb-20 14:59N 46°12' W 123°48'0 0.0
2018-Feb-20 14:29N 46°12' W 123°48'0 0.0
2018-Feb-20 13:59N 46°12' W 123°48'0 0.0
2018-Feb-20 13:29N 46°12' W 123°48'0 0.0
2018-Feb-20 12:59N 46°12' W 123°48'0 0.0
2018-Feb-20 12:29N 46°12' W 123°48'0 0.0
2018-Feb-20 11:59N 46°12' W 123°48'0 0.0
2018-Feb-20 11:29N 46°12' W 123°48'0 0.0
2018-Feb-20 10:59N 46°12' W 123°48'0 0.0
2018-Feb-20 10:29N 46°12' W 123°48'0 0.0
2018-Feb-20 09:59N 46°12' W 123°48'0 0.0
2018-Feb-20 09:29N 46°12' W 123°48'0 0.0
2018-Feb-20 08:59N 46°12' W 123°48'0 0.0
2018-Feb-20 08:29N 46°12' W 123°48'0 0.0
2018-Feb-20 07:59N 46°12' W 123°48'0 0.0
2018-Feb-20 07:29N 46°12' W 123°48'0 0.0
2018-Feb-20 06:59N 46°12' W 123°48'0 0.0
2018-Feb-20 06:29N 46°12' W 123°48'0 0.0
2018-Feb-20 05:59N 46°12' W 123°48'0 0.0
2018-Feb-20 05:29N 46°12' W 123°48'0 0.0
2018-Feb-20 04:59N 46°12' W 123°48'0 0.0
2018-Feb-20 04:29N 46°12' W 123°48'0 0.0
2018-Feb-20 03:59N 46°12' W 123°48'0 0.0
2018-Feb-20 03:29N 46°12' W 123°48'0 0.0
2018-Feb-20 02:59N 46°12' W 123°48'0 0.0
2018-Feb-20 02:29N 46°12' W 123°48'0 0.0
2018-Feb-20 01:59N 46°12' W 123°48'0 0.0
2018-Feb-20 01:29N 46°12' W 123°48'0 0.0
2018-Feb-20 00:59N 46°12' W 123°48'0 0.0
2018-Feb-20 00:29N 46°12' W 123°48'0 0.0
2018-Feb-19 23:59N 46°12' W 123°48'0 0.0
2018-Feb-19 23:29N 46°12' W 123°48'0 0.0
2018-Feb-19 22:59N 46°12' W 123°48'0 0.0
2018-Feb-19 22:29N 46°12' W 123°48'0 0.0
2018-Feb-19 21:59N 46°12' W 123°48'0 0.0
2018-Feb-19 21:29N 46°12' W 123°48'0 0.0
2018-Feb-19 20:59N 46°12' W 123°48'0 0.0
2018-Feb-19 20:29N 46°12' W 123°48'0 0.0
2018-Feb-19 19:59N 46°12' W 123°48'0 0.0
2018-Feb-19 18:56N 46°12' W 123°48'0 0.0
2018-Feb-19 18:08N 46°12' W 123°48'0 0.0
2018-Feb-19 17:59N 46°12' W 123°48'0 0.0
2018-Feb-19 17:29N 46°12' W 123°48'0 0.0
2018-Feb-19 16:59N 46°12' W 123°48'0 0.0
2018-Feb-19 16:29N 46°12' W 123°48'0 0.0
2018-Feb-19 15:59N 46°12' W 123°48'0 0.0
2018-Feb-19 15:26N 46°12' W 123°48'0 0.0
2018-Feb-19 14:59N 46°12' W 123°48'0 0.0
2018-Feb-19 14:29N 46°12' W 123°48'0 0.0
2018-Feb-19 13:59N 46°12' W 123°48'0 0.0
2018-Feb-19 13:29N 46°12' W 123°48'0 0.0
2018-Feb-19 12:59N 46°12' W 123°48'0 0.0
2018-Feb-19 12:29N 46°12' W 123°48'0 0.0
2018-Feb-19 11:59N 46°12' W 123°48'0 0.0
2018-Feb-19 10:47N 46°12' W 123°48'0 0.0
2018-Feb-19 10:29N 46°12' W 123°48'0 0.0
2018-Feb-19 09:59N 46°12' W 123°48'0 0.0
2018-Feb-19 09:18N 46°12' W 123°48'0 0.0
2018-Feb-19 08:59N 46°12' W 123°48'0 0.0
2018-Feb-19 08:29N 46°12' W 123°48'0 0.0
2018-Feb-19 07:41N 46°12' W 123°48'0 0.0
2018-Feb-19 07:29N 46°12' W 123°48'0 0.0
2018-Feb-19 06:56N 46°12' W 123°48'0 0.0
2018-Feb-19 06:29N 46°12' W 123°48'0 0.0
2018-Feb-19 05:59N 46°12' W 123°48'0 0.0
2018-Feb-19 05:17N 46°12' W 123°48'0 0.0
2018-Feb-19 04:59N 46°12' W 123°48'0 0.0
2018-Feb-19 04:29N 46°12' W 123°48'0 0.0
2018-Feb-19 03:59N 46°12' W 123°48'0 0.0
2018-Feb-19 03:29N 46°12' W 123°48'0 0.0
2018-Feb-19 02:59N 46°12' W 123°48'0 0.0
2018-Feb-19 02:29N 46°12' W 123°48'0 0.0
2018-Feb-19 01:59N 46°12' W 123°48'0 0.0
2018-Feb-19 01:29N 46°12' W 123°48'0 0.0
2018-Feb-19 00:59N 46°12' W 123°48'0 0.0
2018-Feb-19 00:29N 46°12' W 123°48'0 0.0
2018-Feb-18 23:59N 46°12' W 123°48'0 0.0
2018-Feb-18 23:29N 46°12' W 123°48'0 0.0
2018-Feb-18 22:59N 46°12' W 123°48'0 0.0
2018-Feb-18 22:26N 46°12' W 123°48'0 0.0
2018-Feb-18 21:59N 46°12' W 123°48'0 0.0
2018-Feb-18 21:29N 46°12' W 123°48'0 0.0
2018-Feb-18 20:59N 46°12' W 123°48'0 0.0
2018-Feb-18 20:29N 46°12' W 123°48'0 0.0
2018-Feb-18 19:59N 46°12' W 123°48'0 0.0
2018-Feb-18 19:29N 46°12' W 123°48'0 0.0
2018-Feb-18 18:59N 46°12' W 123°48'0 0.0
2018-Feb-18 18:26N 46°12' W 123°48'0 0.0
2018-Feb-18 17:59N 46°12' W 123°48'0 0.0
2018-Feb-18 17:29N 46°12' W 123°48'0 0.0
2018-Feb-18 16:59N 46°12' W 123°48'0 0.0
2018-Feb-18 16:29N 46°12' W 123°48'0 0.0
2018-Feb-18 15:59N 46°12' W 123°48'0 0.0
2018-Feb-18 15:29N 46°12' W 123°48'0 0.0
2018-Feb-18 14:59N 46°12' W 123°48'0 0.0
2018-Feb-18 14:29N 46°12' W 123°48'0 0.0
2018-Feb-18 13:59N 46°12' W 123°48'0 0.0
2018-Feb-18 13:29N 46°12' W 123°48'0 0.0
2018-Feb-18 12:59N 46°12' W 123°48'0 0.0
2018-Feb-18 12:26N 46°12' W 123°48'0 0.0
2018-Feb-18 11:59N 46°12' W 123°48'0 0.0
2018-Feb-18 11:29N 46°12' W 123°48'0 0.0
2018-Feb-18 10:59N 46°12' W 123°48'0 0.0
2018-Feb-18 10:29N 46°12' W 123°48'0 0.0
2018-Feb-18 09:47N 46°12' W 123°48'0 0.0
2018-Feb-18 09:29N 46°12' W 123°48'0 0.0
2018-Feb-18 08:59N 46°12' W 123°48'0 0.0
2018-Feb-18 08:29N 46°12' W 123°48'0 0.0
2018-Feb-18 07:59N 46°12' W 123°48'0 0.0
2018-Feb-18 07:29N 46°12' W 123°48'0 0.0
2018-Feb-18 06:59N 46°12' W 123°48'0 0.0
2018-Feb-18 06:29N 46°12' W 123°48'0 0.0
2018-Feb-18 05:59N 46°12' W 123°48'0 0.0
2018-Feb-18 05:29N 46°12' W 123°48'0 0.0
2018-Feb-18 04:59N 46°12' W 123°48'0 0.0
2018-Feb-18 04:29N 46°12' W 123°48'0 0.0
2018-Feb-18 03:59N 46°12' W 123°48'0 0.0
2018-Feb-18 03:26N 46°12' W 123°48'0 0.0
2018-Feb-18 02:59N 46°12' W 123°48'0 0.0
2018-Feb-18 02:29N 46°12' W 123°48'0 0.0
2018-Feb-18 01:59N 46°12' W 123°48'0 0.0
2018-Feb-18 01:29N 46°12' W 123°48'0 0.0
2018-Feb-18 00:59N 46°12' W 123°48'0 0.0
2018-Feb-17 23:47N 46°12' W 123°48'0 0.0
2018-Feb-17 23:23N 46°12' W 123°48'0 0.0
2018-Feb-17 22:59N 46°12' W 123°48'0 0.0
2018-Feb-17 22:29N 46°12' W 123°48'0 0.0
2018-Feb-17 21:59N 46°12' W 123°48'0 0.0
2018-Feb-17 21:29N 46°12' W 123°48'0 0.0
2018-Feb-17 21:00N 46°12' W 123°48'0 0.0
2018-Feb-17 20:29N 46°12' W 123°48'0 0.0
2018-Feb-17 19:59N 46°12' W 123°48'0 0.0
2018-Feb-17 19:29N 46°12' W 123°48'0 0.0
2018-Feb-17 18:35N 46°12' W 123°48'0 0.0
2018-Feb-17 18:29N 46°12' W 123°48'0 0.0
2018-Feb-17 17:42N 46°12' W 123°48'0 0.0
2018-Feb-17 17:29N 46°12' W 123°48'0 0.0
2018-Feb-17 16:59N 46°12' W 123°48'0 0.0
2018-Feb-17 16:29N 46°12' W 123°48'0 0.0
2018-Feb-17 15:59N 46°12' W 123°48'0 0.0
2018-Feb-17 15:29N 46°12' W 123°48'0 0.0
2018-Feb-17 14:59N 46°12' W 123°48'0 0.0
2018-Feb-17 14:30N 46°12' W 123°48'0 0.0
2018-Feb-17 13:59N 46°12' W 123°48'0 0.0
2018-Feb-17 13:29N 46°12' W 123°48'0 0.0
2018-Feb-17 12:05N 46°12' W 123°48'0 0.0
2018-Feb-17 10:24N 46°12' W 123°48'0 0.0
2018-Feb-17 10:00N 46°12' W 123°48'0 0.0
2018-Feb-17 09:30N 46°12' W 123°48'0 0.0
2018-Feb-17 09:00N 46°12' W 123°48'0 0.0
2018-Feb-17 08:30N 46°12' W 123°48'0 0.0
2018-Feb-17 08:00N 46°12' W 123°48'0 0.0
2018-Feb-17 07:30N 46°12' W 123°48'0 0.0
2018-Feb-17 07:00N 46°12' W 123°48'0 0.0
2018-Feb-17 06:30N 46°12' W 123°48'0 0.0
2018-Feb-17 06:00N 46°12' W 123°48'0 0.0
2018-Feb-17 05:30N 46°12' W 123°48'0 0.0
2018-Feb-17 05:00N 46°12' W 123°48'0 0.0
2018-Feb-17 04:30N 46°12' W 123°48'0 0.0
2018-Feb-17 03:33N 46°12' W 123°48'0 0.0
2018-Feb-17 03:15N 46°12' W 123°48'0 0.0
2018-Feb-17 03:00N 46°12' W 123°48'0 0.0
2018-Feb-17 02:30N 46°12' W 123°48'0 0.0
2018-Feb-17 02:00N 46°12' W 123°48'0 0.0
2018-Feb-17 01:30N 46°12' W 123°48'0 0.0
2018-Feb-17 01:00N 46°12' W 123°48'0 0.0
2018-Feb-17 00:30N 46°12' W 123°48'0 0.0
2018-Feb-17 00:00N 46°12' W 123°48'0 0.0
2018-Feb-16 23:27N 46°12' W 123°48'0 0.0
2018-Feb-16 23:00N 46°12' W 123°48'0 0.0
2018-Feb-16 22:30N 46°12' W 123°48'0 0.0
2018-Feb-16 22:00N 46°12' W 123°48'0 0.0
2018-Feb-16 21:30N 46°12' W 123°48'0 0.0
2018-Feb-16 20:24N 46°12' W 123°48'0 0.0
2018-Feb-16 20:00N 46°12' W 123°48'0 0.0
2018-Feb-16 19:24N 46°12' W 123°48'0 0.0
2018-Feb-16 19:00N 46°12' W 123°48'0 0.0
2018-Feb-16 18:30N 46°12' W 123°48'0 0.0
2018-Feb-16 17:57N 46°12' W 123°48'0 0.0
2018-Feb-16 17:30N 46°12' W 123°48'0 0.0
2018-Feb-16 17:00N 46°12' W 123°48'0 0.0
2018-Feb-16 16:09N 46°12' W 123°48'0 0.0
2018-Feb-16 15:51N 46°12' W 123°48'0 0.0
2018-Feb-16 15:30N 46°12' W 123°48'0 0.0
2018-Feb-16 15:00N 46°12' W 123°48'0 0.0
2018-Feb-16 14:30N 46°12' W 123°48'0 0.0
2018-Feb-16 14:00N 46°12' W 123°48'0 0.0
2018-Feb-16 13:30N 46°12' W 123°48'0 0.0
2018-Feb-16 13:00N 46°12' W 123°48'0 0.0
2018-Feb-16 12:30N 46°12' W 123°48'0 0.0
2018-Feb-16 11:45N 46°12' W 123°48'0 0.0
2018-Feb-16 11:30N 46°12' W 123°48'0 0.0
2018-Feb-16 11:00N 46°12' W 123°48'0 0.0
2018-Feb-16 10:30N 46°12' W 123°48'0 0.0
2018-Feb-16 10:00N 46°12' W 123°48'0 0.0
2018-Feb-16 09:03N 46°12' W 123°48'0 0.0
2018-Feb-16 09:00N 46°12' W 123°48'0 0.0
2018-Feb-16 08:30N 46°12' W 123°48'0 0.0
2018-Feb-16 08:00N 46°12' W 123°48'0 0.0
2018-Feb-16 07:30N 46°12' W 123°48'0 0.0
2018-Feb-16 07:00N 46°12' W 123°48'0 0.0
2018-Feb-16 06:30N 46°12' W 123°48'0 0.0
2018-Feb-16 06:00N 46°12' W 123°48'0 0.0
2018-Feb-16 05:30N 46°12' W 123°48'0 0.0
2018-Feb-16 05:00N 46°12' W 123°48'0 0.0
2018-Feb-16 04:30N 46°12' W 123°48'0 0.0
2018-Feb-16 04:00N 46°12' W 123°48'0 0.0
2018-Feb-16 03:30N 46°12' W 123°48'0 0.0
2018-Feb-16 03:00N 46°12' W 123°48'0 0.0
2018-Feb-16 02:27N 46°12' W 123°48'0 0.0
2018-Feb-16 02:00N 46°12' W 123°48'0 0.0
2018-Feb-16 01:30N 46°12' W 123°48'0 0.0
2018-Feb-16 01:00N 46°12' W 123°48'0 0.0
2018-Feb-16 00:24N 46°12' W 123°48'0 0.0
2018-Feb-16 00:00N 46°12' W 123°48'0 0.0
2018-Feb-15 23:30N 46°12' W 123°48'0 0.0
2018-Feb-15 23:00N 46°12' W 123°48'0 0.0
2018-Feb-15 22:30N 46°12' W 123°48'0 0.0
2018-Feb-15 22:00N 46°12' W 123°48'0 0.0
2018-Feb-15 21:30N 46°12' W 123°48'0 0.0
2018-Feb-15 21:00N 46°12' W 123°48'0 0.0
2018-Feb-15 20:30N 46°12' W 123°48'0 0.0
2018-Feb-15 20:00N 46°12' W 123°48'0 0.0
2018-Feb-15 19:30N 46°12' W 123°48'0 0.0
2018-Feb-15 19:00N 46°12' W 123°48'0 0.0
2018-Feb-15 18:18N 46°12' W 123°48'0 0.0
2018-Feb-15 18:00N 46°12' W 123°48'0 0.0
2018-Feb-15 17:30N 46°12' W 123°48'0 0.0
2018-Feb-15 17:00N 46°12' W 123°48'0 0.0
2018-Feb-15 16:30N 46°12' W 123°48'0 0.0
2018-Feb-15 16:00N 46°12' W 123°48'0 0.0
2018-Feb-15 15:30N 46°12' W 123°48'0 0.0
2018-Feb-15 15:00N 46°12' W 123°48'0 0.0
2018-Feb-15 14:30N 46°12' W 123°48'0 0.0
2018-Feb-15 14:00N 46°12' W 123°48'0 0.0
2018-Feb-15 13:30N 46°12' W 123°48'0 0.0
2018-Feb-15 13:00N 46°12' W 123°48'0 0.0
2018-Feb-15 12:30N 46°12' W 123°48'  
Track history (hours):
 
Tides and Currents Weather Stations Pressure Air Temp Water Temp Dewpoint Dewpoint Depression Visibility Wind Speed Wind Dir Waves Ship Positions

Ocean Beaut

Owner: John Moreland Fishing Inc., Astoria, OR. More information available from US FCC via Universal Licensing System.

Last reported at 2018-Feb-25 12:00 UTC. Time now 2018-Feb-25 12:04 UTC.
Position N 46°12' W 123°48'.

Length 20 m.

Type: Fishing. MMSI: 367187080.

Date/timePositionNaut miles runAvg speedWind from/ knotsBaromVisibWave heightAir tempDewpointWater temp
2018-Feb-25 12:00N 46°12' W 123°48'0 0.0
2018-Feb-25 11:18N 46°12' W 123°48'0 0.0
2018-Feb-25 11:00N 46°12' W 123°48'0 0.0
2018-Feb-25 10:30N 46°12' W 123°48'0 0.0
2018-Feb-25 10:00N 46°12' W 123°48'0 0.0
2018-Feb-25 09:30N 46°12' W 123°48'0 0.0
2018-Feb-25 09:00N 46°12' W 123°48'0 0.0
2018-Feb-25 08:30N 46°12' W 123°48'0 0.0
2018-Feb-25 08:00N 46°12' W 123°48'0 0.0
2018-Feb-25 07:30N 46°12' W 123°48'0 0.0
2018-Feb-25 07:00N 46°12' W 123°48'0 0.0
2018-Feb-25 06:30N 46°12' W 123°48'0 0.0
2018-Feb-25 05:39N 46°12' W 123°48'0 0.0
2018-Feb-25 05:24N 46°12' W 123°48'0 0.0
2018-Feb-25 05:00N 46°12' W 123°48'0 0.0
2018-Feb-25 04:30N 46°12' W 123°48'0 0.0
2018-Feb-25 04:00N 46°12' W 123°48'0 0.0
2018-Feb-25 03:24N 46°12' W 123°48'0 0.0
2018-Feb-25 03:00N 46°12' W 123°48'0 0.0
2018-Feb-25 02:30N 46°12' W 123°48'0 0.0
2018-Feb-25 02:00N 46°12' W 123°48'0 0.0
2018-Feb-25 01:30N 46°12' W 123°48'0 0.0
2018-Feb-25 01:00N 46°12' W 123°48'0 0.0
2018-Feb-25 00:30N 46°12' W 123°48'0 0.0
2018-Feb-25 00:00N 46°12' W 123°48'0 0.0
2018-Feb-24 23:30N 46°12' W 123°48'0 0.0
2018-Feb-24 22:51N 46°12' W 123°48'0 0.0
2018-Feb-24 22:30N 46°12' W 123°48'0 0.0
2018-Feb-24 22:00N 46°12' W 123°48'0 0.0
2018-Feb-24 21:30N 46°12' W 123°48'0 0.0
2018-Feb-24 21:00N 46°12' W 123°48'0 0.0
2018-Feb-24 20:30N 46°12' W 123°48'0 0.0
2018-Feb-24 20:00N 46°12' W 123°48'0 0.0
2018-Feb-24 19:30N 46°12' W 123°48'0 0.0
2018-Feb-24 19:00N 46°12' W 123°48'0 0.0
2018-Feb-24 18:30N 46°12' W 123°48'0 0.0
2018-Feb-24 18:00N 46°12' W 123°48'0 0.0
2018-Feb-24 17:30N 46°12' W 123°48'0 0.0
2018-Feb-24 17:00N 46°12' W 123°48'0 0.0
2018-Feb-24 16:30N 46°12' W 123°48'0 0.0
2018-Feb-24 16:00N 46°12' W 123°48'0 0.0
2018-Feb-24 15:24N 46°12' W 123°48'0 0.0
2018-Feb-24 15:00N 46°12' W 123°48'0 0.0
2018-Feb-24 14:30N 46°12' W 123°48'0 0.0
2018-Feb-24 14:00N 46°12' W 123°48'0 0.0
2018-Feb-24 13:30N 46°12' W 123°48'0 0.0
2018-Feb-24 12:33N 46°12' W 123°48'0 0.0
2018-Feb-24 12:30N 46°12' W 123°48'0 0.0
2018-Feb-24 12:00N 46°12' W 123°48'0 0.0
2018-Feb-24 11:30N 46°12' W 123°48'0 0.0
2018-Feb-24 11:00N 46°12' W 123°48'0 0.0
2018-Feb-24 10:30N 46°12' W 123°48'0 0.0
2018-Feb-24 10:00N 46°12' W 123°48'0 0.0
2018-Feb-24 09:30N 46°12' W 123°48'0 0.0
2018-Feb-24 09:00N 46°12' W 123°48'0 0.0
2018-Feb-24 08:30N 46°12' W 123°48'0 0.0
2018-Feb-24 08:00N 46°12' W 123°48'0 0.0
2018-Feb-24 07:30N 46°12' W 123°48'0 0.0
2018-Feb-24 07:00N 46°12' W 123°48'0 0.0
2018-Feb-24 06:30N 46°12' W 123°48'0 0.0
2018-Feb-24 06:00N 46°12' W 123°48'0 0.0
2018-Feb-24 05:30N 46°12' W 123°48'0 0.0
2018-Feb-24 05:00N 46°12' W 123°48'0 0.0
2018-Feb-24 04:30N 46°12' W 123°48'0 0.0
2018-Feb-24 04:00N 46°12' W 123°48'0 0.0
2018-Feb-24 03:30N 46°12' W 123°48'0 0.0
2018-Feb-24 03:00N 46°12' W 123°48'0 0.0
2018-Feb-24 02:30N 46°12' W 123°48'0 0.0
2018-Feb-24 02:00N 46°12' W 123°48'0 0.0
2018-Feb-24 01:11N 46°12' W 123°48'0 0.0
2018-Feb-24 00:47N 46°12' W 123°48'1 4.4
2018-Feb-24 00:30N 46°12' W 123°50'3 5.2
2018-Feb-24 00:00N 46°11' W 123°54'4 7.4
2018-Feb-23 23:30N 46°13' W 123°58'5 6.8
2018-Feb-23 22:45N 46°15' W 124°05'2 7.6
2018-Feb-23 22:29N 46°14' W 124°07'4 7.8
2018-Feb-23 22:01N 46°13' W 124°13'4 8.1
2018-Feb-23 21:30N 46°13' W 124°19'4 7.2
2018-Feb-23 21:00N 46°14' W 124°24'6 6.3
2018-Feb-23 20:06N 46°13' W 124°32'0 3.1
2018-Feb-23 20:00N 46°13' W 124°32'2 3.6
2018-Feb-23 19:30N 46°13' W 124°35'3 6.6
2018-Feb-23 19:00N 46°12' W 124°39'2 4.6
2018-Feb-23 18:30N 46°10' W 124°41'0 0.2
2018-Feb-23 17:59N 46°10' W 124°41'1 2.3
2018-Feb-23 17:29N 46°09' W 124°42'1 2.3
2018-Feb-23 17:00N 46°08' W 124°43'1 2.2
2018-Feb-23 16:30N 46°07' W 124°44'1 2.2
2018-Feb-23 16:00N 46°06' W 124°45'1 2.2
2018-Feb-23 15:30N 46°05' W 124°46'1 2.2
2018-Feb-23 14:57N 46°05' W 124°47'2 3.1
2018-Feb-23 14:21N 46°04' W 124°50'7 4.0
2018-Feb-23 12:37N 46°10' W 124°45'1 6.6
2018-Feb-23 12:27N 46°11' W 124°44'3 5.6
2018-Feb-23 11:59N 46°14' W 124°42'3 6.7
2018-Feb-23 11:30N 46°17' W 124°40'1 1.1
2018-Feb-23 10:48N 46°17' W 124°39'0 0.6
2018-Feb-23 10:21N 46°16' W 124°39'1 2.1
2018-Feb-23 10:00N 46°17' W 124°40'2 2.0
2018-Feb-23 09:15N 46°18' W 124°41'1 2.2
2018-Feb-23 09:00N 46°18' W 124°42'1 2.2
2018-Feb-23 08:30N 46°18' W 124°43'1 2.5
2018-Feb-23 07:59N 46°18' W 124°45'2 1.3
2018-Feb-23 06:03N 46°19' W 124°42'0 2.1
2018-Feb-23 05:53N 46°19' W 124°41'1 2.1
2018-Feb-23 05:30N 46°18' W 124°40'1 2.4
2018-Feb-23 05:00N 46°17' W 124°39'1 2.2
2018-Feb-23 04:30N 46°17' W 124°38'1 2.3
2018-Feb-23 03:59N 46°16' W 124°37'0 0.3
2018-Feb-23 03:27N 46°16' W 124°37'2 4.3
2018-Feb-23 03:01N 46°18' W 124°38'1 2.8
2018-Feb-23 02:29N 46°19' W 124°39'0 0.1
2018-Feb-23 02:00N 46°19' W 124°40'2 2.2
2018-Feb-23 01:15N 46°18' W 124°42'1 2.1
2018-Feb-23 01:00N 46°18' W 124°42'1 2.2
2018-Feb-23 00:28N 46°18' W 124°44'1 1.0
2018-Feb-22 23:33N 46°17' W 124°45'0 2.1
2018-Feb-22 23:28N 46°17' W 124°45'3 2.1
2018-Feb-22 22:09N 46°19' W 124°42'0 2.3
2018-Feb-22 22:00N 46°18' W 124°41'1 2.3
2018-Feb-22 21:25N 46°18' W 124°40'1 3.3
2018-Feb-22 21:00N 46°16' W 124°39'0 0.7
2018-Feb-22 20:28N 46°17' W 124°39'1 2.0
2018-Feb-22 19:57N 46°18' W 124°40'1 2.3
2018-Feb-22 19:30N 46°18' W 124°41'2 2.0
2018-Feb-22 18:39N 46°18' W 124°43'0 2.2
2018-Feb-22 18:30N 46°18' W 124°44'1 2.6
2018-Feb-22 17:59N 46°17' W 124°45'0 0.9
2018-Feb-22 17:30N 46°17' W 124°45'3 2.0
2018-Feb-22 16:12N 46°18' W 124°42'0 2.2
2018-Feb-22 16:00N 46°18' W 124°41'1 2.2
2018-Feb-22 15:30N 46°18' W 124°40'0 0.4
2018-Feb-22 15:00N 46°18' W 124°40'3 5.1
2018-Feb-22 14:30N 46°20' W 124°40'2 4.9
2018-Feb-22 14:00N 46°23' W 124°41'3 5.2
2018-Feb-22 13:29N 46°25' W 124°41'2 4.9
2018-Feb-22 13:00N 46°28' W 124°41'3 4.2
2018-Feb-22 12:23N 46°30' W 124°40'1 1.8
2018-Feb-22 12:00N 46°31' W 124°40'1 1.3
2018-Feb-22 11:23N 46°31' W 124°39'1 2.4
2018-Feb-22 10:57N 46°32' W 124°38'1 2.3
2018-Feb-22 10:30N 46°33' W 124°37'0 0.4
2018-Feb-22 10:00N 46°33' W 124°37'1 2.3
2018-Feb-22 09:30N 46°32' W 124°38'1 2.4
2018-Feb-22 09:01N 46°31' W 124°40'1 2.7
2018-Feb-22 08:30N 46°31' W 124°41'1 1.2
2018-Feb-22 07:32N 46°31' W 124°39'0 3.7
2018-Feb-22 07:30N 46°30' W 124°39'1 0.8
2018-Feb-22 06:47N 46°30' W 124°40'1 2.3
2018-Feb-22 06:30N 46°31' W 124°41'1 2.4
2018-Feb-22 06:00N 46°32' W 124°41'1 2.5
2018-Feb-22 05:30N 46°33' W 124°41'1 1.5
2018-Feb-22 04:59N 46°34' W 124°41'1 2.1
2018-Feb-22 04:30N 46°33' W 124°41'1 2.1
2018-Feb-22 04:00N 46°32' W 124°41'1 2.2
2018-Feb-22 03:30N 46°31' W 124°41'1 2.3
2018-Feb-22 03:00N 46°30' W 124°40'2 3.6
2018-Feb-22 02:30N 46°28' W 124°39'4 8.0
2018-Feb-22 02:00N 46°26' W 124°34'4 7.7
2018-Feb-22 01:30N 46°24' W 124°30'4 8.0
2018-Feb-22 01:00N 46°21' W 124°25'4 8.3
2018-Feb-22 00:30N 46°18' W 124°21'4 8.4
2018-Feb-22 00:00N 46°16' W 124°16'4 8.3
2018-Feb-21 23:29N 46°13' W 124°11'4 7.8
2018-Feb-21 23:00N 46°15' W 124°06'4 7.2
2018-Feb-21 22:30N 46°15' W 124°01'4 7.6
2018-Feb-21 22:00N 46°13' W 123°57'4 7.6
2018-Feb-21 21:30N 46°11' W 123°52'0 0.7
2018-Feb-21 21:00N 46°11' W 123°51'0 0.0
2018-Feb-21 20:30N 46°11' W 123°51'0 0.0
2018-Feb-21 20:00N 46°11' W 123°51'1 1.6
2018-Feb-21 19:28N 46°12' W 123°50'2 3.1
2018-Feb-21 18:59N 46°12' W 123°48'0 0.0
2018-Feb-21 18:26N 46°12' W 123°48'0 0.0
2018-Feb-21 17:50N 46°12' W 123°48'0 0.0
2018-Feb-21 17:29N 46°12' W 123°48'0 0.0
2018-Feb-21 16:59N 46°12' W 123°48'0 0.0
2018-Feb-21 16:29N 46°12' W 123°48'0 0.0
2018-Feb-21 15:59N 46°12' W 123°48'0 0.0
2018-Feb-21 15:29N 46°12' W 123°48'0 0.0
2018-Feb-21 14:59N 46°12' W 123°48'0 0.0
2018-Feb-21 14:29N 46°12' W 123°48'0 0.0
2018-Feb-21 13:59N 46°12' W 123°48'0 0.0
2018-Feb-21 13:29N 46°12' W 123°48'0 0.0
2018-Feb-21 12:59N 46°12' W 123°48'0 0.0
2018-Feb-21 12:29N 46°12' W 123°48'0 0.0
2018-Feb-21 11:59N 46°12' W 123°48'0 0.0
2018-Feb-21 11:29N 46°12' W 123°48'0 0.0
2018-Feb-21 10:59N 46°12' W 123°48'0 0.0
2018-Feb-21 10:29N 46°12' W 123°48'0 0.0
2018-Feb-21 09:59N 46°12' W 123°48'0 0.0
2018-Feb-21 09:29N 46°12' W 123°48'0 0.0
2018-Feb-21 08:59N 46°12' W 123°48'0 0.0
2018-Feb-21 08:14N 46°12' W 123°48'0 0.0
2018-Feb-21 07:59N 46°12' W 123°48'0 0.0
2018-Feb-21 07:26N 46°12' W 123°48'0 0.0
2018-Feb-21 06:32N 46°12' W 123°48'0 0.0
2018-Feb-21 06:29N 46°12' W 123°48'0 0.0
2018-Feb-21 05:59N 46°12' W 123°48'0 0.0
2018-Feb-21 05:29N 46°12' W 123°48'0 0.0
2018-Feb-21 04:59N 46°12' W 123°48'0 0.0
2018-Feb-21 04:29N 46°12' W 123°48'0 0.0
2018-Feb-21 03:56N 46°12' W 123°48'0 0.0
2018-Feb-21 03:29N 46°12' W 123°48'0 0.0
2018-Feb-21 02:59N 46°12' W 123°48'0 0.0
2018-Feb-21 02:29N 46°12' W 123°48'0 0.0
2018-Feb-21 01:59N 46°12' W 123°48'0 0.0
2018-Feb-21 01:29N 46°12' W 123°48'0 0.0
2018-Feb-21 00:59N 46°12' W 123°48'0 0.0
2018-Feb-21 00:29N 46°12' W 123°48'0 0.0
2018-Feb-20 23:59N 46°12' W 123°48'0 0.0
2018-Feb-20 23:02N 46°12' W 123°48'0 0.0
2018-Feb-20 22:56N 46°12' W 123°48'0 0.0
2018-Feb-20 22:23N 46°12' W 123°48'0 0.0
2018-Feb-20 21:59N 46°12' W 123°48'0 0.0
2018-Feb-20 21:29N 46°12' W 123°48'0 0.0
2018-Feb-20 20:59N 46°12' W 123°48'0 0.0
2018-Feb-20 20:29N 46°12' W 123°48'0 0.0
2018-Feb-20 19:59N 46°12' W 123°48'0 0.0
2018-Feb-20 19:29N 46°12' W 123°48'0 0.0
2018-Feb-20 18:53N 46°12' W 123°48'0 0.0
2018-Feb-20 18:29N 46°12' W 123°48'0 0.0
2018-Feb-20 17:59N 46°12' W 123°48'0 0.0
2018-Feb-20 17:29N 46°12' W 123°48'0 0.0
2018-Feb-20 16:59N 46°12' W 123°48'0 0.0
2018-Feb-20 16:29N 46°12' W 123°48'0 0.0
2018-Feb-20 15:59N 46°12' W 123°48'0 0.0
2018-Feb-20 15:26N 46°12' W 123°48'0 0.0
2018-Feb-20 14:59N 46°12' W 123°48'0 0.0
2018-Feb-20 14:29N 46°12' W 123°48'0 0.0
2018-Feb-20 13:59N 46°12' W 123°48'0 0.0
2018-Feb-20 13:29N 46°12' W 123°48'0 0.0
2018-Feb-20 12:59N 46°12' W 123°48'0 0.0
2018-Feb-20 12:29N 46°12' W 123°48'0 0.0
2018-Feb-20 11:59N 46°12' W 123°48'0 0.0
2018-Feb-20 11:29N 46°12' W 123°48'0 0.0
2018-Feb-20 10:59N 46°12' W 123°48'0 0.0
2018-Feb-20 10:29N 46°12' W 123°48'0 0.0
2018-Feb-20 09:59N 46°12' W 123°48'0 0.0
2018-Feb-20 09:29N 46°12' W 123°48'0 0.0
2018-Feb-20 08:59N 46°12' W 123°48'0 0.0
2018-Feb-20 08:29N 46°12' W 123°48'0 0.0
2018-Feb-20 07:59N 46°12' W 123°48'0 0.0
2018-Feb-20 07:29N 46°12' W 123°48'0 0.0
2018-Feb-20 06:59N 46°12' W 123°48'0 0.0
2018-Feb-20 06:29N 46°12' W 123°48'0 0.0
2018-Feb-20 05:59N 46°12' W 123°48'0 0.0
2018-Feb-20 05:29N 46°12' W 123°48'0 0.0
2018-Feb-20 04:59N 46°12' W 123°48'0 0.0
2018-Feb-20 04:29N 46°12' W 123°48'0 0.0
2018-Feb-20 03:59N 46°12' W 123°48'0 0.0
2018-Feb-20 03:29N 46°12' W 123°48'0 0.0
2018-Feb-20 02:59N 46°12' W 123°48'0 0.0
2018-Feb-20 02:29N 46°12' W 123°48'0 0.0
2018-Feb-20 01:59N 46°12' W 123°48'0 0.0
2018-Feb-20 01:29N 46°12' W 123°48'0 0.0
2018-Feb-20 00:59N 46°12' W 123°48'0 0.0
2018-Feb-20 00:29N 46°12' W 123°48'0 0.0
2018-Feb-19 23:59N 46°12' W 123°48'0 0.0
2018-Feb-19 23:29N 46°12' W 123°48'0 0.0
2018-Feb-19 22:59N 46°12' W 123°48'0 0.0
2018-Feb-19 22:29N 46°12' W 123°48'0 0.0
2018-Feb-19 21:59N 46°12' W 123°48'0 0.0
2018-Feb-19 21:29N 46°12' W 123°48'0 0.0
2018-Feb-19 20:59N 46°12' W 123°48'0 0.0
2018-Feb-19 20:29N 46°12' W 123°48'0 0.0
2018-Feb-19 19:59N 46°12' W 123°48'0 0.0
2018-Feb-19 18:56N 46°12' W 123°48'0 0.0
2018-Feb-19 18:08N 46°12' W 123°48'0 0.0
2018-Feb-19 17:59N 46°12' W 123°48'0 0.0
2018-Feb-19 17:29N 46°12' W 123°48'0 0.0
2018-Feb-19 16:59N 46°12' W 123°48'0 0.0
2018-Feb-19 16:29N 46°12' W 123°48'0 0.0
2018-Feb-19 15:59N 46°12' W 123°48'0 0.0
2018-Feb-19 15:26N 46°12' W 123°48'0 0.0
2018-Feb-19 14:59N 46°12' W 123°48'0 0.0
2018-Feb-19 14:29N 46°12' W 123°48'0 0.0
2018-Feb-19 13:59N 46°12' W 123°48'0 0.0
2018-Feb-19 13:29N 46°12' W 123°48'0 0.0
2018-Feb-19 12:59N 46°12' W 123°48'0 0.0
2018-Feb-19 12:29N 46°12' W 123°48'0 0.0
2018-Feb-19 11:59N 46°12' W 123°48'0 0.0
2018-Feb-19 10:47N 46°12' W 123°48'0 0.0
2018-Feb-19 10:29N 46°12' W 123°48'0 0.0
2018-Feb-19 09:59N 46°12' W 123°48'0 0.0
2018-Feb-19 09:18N 46°12' W 123°48'0 0.0
2018-Feb-19 08:59N 46°12' W 123°48'0 0.0
2018-Feb-19 08:29N 46°12' W 123°48'0 0.0
2018-Feb-19 07:41N 46°12' W 123°48'0 0.0
2018-Feb-19 07:29N 46°12' W 123°48'0 0.0
2018-Feb-19 06:56N 46°12' W 123°48'0 0.0
2018-Feb-19 06:29N 46°12' W 123°48'0 0.0
2018-Feb-19 05:59N 46°12' W 123°48'0 0.0
2018-Feb-19 05:17N 46°12' W 123°48'0 0.0
2018-Feb-19 04:59N 46°12' W 123°48'0 0.0
2018-Feb-19 04:29N 46°12' W 123°48'0 0.0
2018-Feb-19 03:59N 46°12' W 123°48'0 0.0
2018-Feb-19 03:29N 46°12' W 123°48'0 0.0
2018-Feb-19 02:59N 46°12' W 123°48'0 0.0
2018-Feb-19 02:29N 46°12' W 123°48'0 0.0
2018-Feb-19 01:59N 46°12' W 123°48'0 0.0
2018-Feb-19 01:29N 46°12' W 123°48'0 0.0
2018-Feb-19 00:59N 46°12' W 123°48'0 0.0
2018-Feb-19 00:29N 46°12' W 123°48'0 0.0
2018-Feb-18 23:59N 46°12' W 123°48'0 0.0
2018-Feb-18 23:29N 46°12' W 123°48'0 0.0
2018-Feb-18 22:59N 46°12' W 123°48'0 0.0
2018-Feb-18 22:26N 46°12' W 123°48'0 0.0
2018-Feb-18 21:59N 46°12' W 123°48'0 0.0
2018-Feb-18 21:29N 46°12' W 123°48'0 0.0
2018-Feb-18 20:59N 46°12' W 123°48'0 0.0
2018-Feb-18 20:29N 46°12' W 123°48'0 0.0
2018-Feb-18 19:59N 46°12' W 123°48'0 0.0
2018-Feb-18 19:29N 46°12' W 123°48'0 0.0
2018-Feb-18 18:59N 46°12' W 123°48'0 0.0
2018-Feb-18 18:26N 46°12' W 123°48'0 0.0
2018-Feb-18 17:59N 46°12' W 123°48'0 0.0
2018-Feb-18 17:29N 46°12' W 123°48'0 0.0
2018-Feb-18 16:59N 46°12' W 123°48'0 0.0
2018-Feb-18 16:29N 46°12' W 123°48'0 0.0
2018-Feb-18 15:59N 46°12' W 123°48'0 0.0
2018-Feb-18 15:29N 46°12' W 123°48'0 0.0
2018-Feb-18 14:59N 46°12' W 123°48'0 0.0
2018-Feb-18 14:29N 46°12' W 123°48'0 0.0
2018-Feb-18 13:59N 46°12' W 123°48'0 0.0
2018-Feb-18 13:29N 46°12' W 123°48'0 0.0
2018-Feb-18 12:59N 46°12' W 123°48'0 0.0
2018-Feb-18 12:26N 46°12' W 123°48'0 0.0
2018-Feb-18 11:59N 46°12' W 123°48'0 0.0
2018-Feb-18 11:29N 46°12' W 123°48'0 0.0
2018-Feb-18 10:59N 46°12' W 123°48'0 0.0
2018-Feb-18 10:29N 46°12' W 123°48'0 0.0
2018-Feb-18 09:47N 46°12' W 123°48'0 0.0
2018-Feb-18 09:29N 46°12' W 123°48'0 0.0
2018-Feb-18 08:59N 46°12' W 123°48'0 0.0
2018-Feb-18 08:29N 46°12' W 123°48'0 0.0
2018-Feb-18 07:59N 46°12' W 123°48'0 0.0
2018-Feb-18 07:29N 46°12' W 123°48'0 0.0
2018-Feb-18 06:59N 46°12' W 123°48'0 0.0
2018-Feb-18 06:29N 46°12' W 123°48'0 0.0
2018-Feb-18 05:59N 46°12' W 123°48'0 0.0
2018-Feb-18 05:29N 46°12' W 123°48'0 0.0
2018-Feb-18 04:59N 46°12' W 123°48'0 0.0
2018-Feb-18 04:29N 46°12' W 123°48'0 0.0
2018-Feb-18 03:59N 46°12' W 123°48'0 0.0
2018-Feb-18 03:26N 46°12' W 123°48'0 0.0
2018-Feb-18 02:59N 46°12' W 123°48'0 0.0
2018-Feb-18 02:29N 46°12' W 123°48'0 0.0
2018-Feb-18 01:59N 46°12' W 123°48'0 0.0
2018-Feb-18 01:29N 46°12' W 123°48'0 0.0
2018-Feb-18 00:59N 46°12' W 123°48'0 0.0
2018-Feb-17 23:47N 46°12' W 123°48'0 0.0
2018-Feb-17 23:23N 46°12' W 123°48'0 0.0
2018-Feb-17 22:59N 46°12' W 123°48'0 0.0
2018-Feb-17 22:29N 46°12' W 123°48'0 0.0
2018-Feb-17 21:59N 46°12' W 123°48'0 0.0
2018-Feb-17 21:29N 46°12' W 123°48'0 0.0
2018-Feb-17 21:00N 46°12' W 123°48'0 0.0
2018-Feb-17 20:29N 46°12' W 123°48'0 0.0
2018-Feb-17 19:59N 46°12' W 123°48'0 0.0
2018-Feb-17 19:29N 46°12' W 123°48'0 0.0
2018-Feb-17 18:35N 46°12' W 123°48'0 0.0
2018-Feb-17 18:29N 46°12' W 123°48'0 0.0
2018-Feb-17 17:42N 46°12' W 123°48'0 0.0
2018-Feb-17 17:29N 46°12' W 123°48'0 0.0
2018-Feb-17 16:59N 46°12' W 123°48'0 0.0
2018-Feb-17 16:29N 46°12' W 123°48'0 0.0
2018-Feb-17 15:59N 46°12' W 123°48'0 0.0
2018-Feb-17 15:29N 46°12' W 123°48'0 0.0
2018-Feb-17 14:59N 46°12' W 123°48'0 0.0
2018-Feb-17 14:30N 46°12' W 123°48'0 0.0
2018-Feb-17 13:59N 46°12' W 123°48'0 0.0
2018-Feb-17 13:29N 46°12' W 123°48'0 0.0
2018-Feb-17 12:05N 46°12' W 123°48'0 0.0
2018-Feb-17 10:24N 46°12' W 123°48'0 0.0
2018-Feb-17 10:00N 46°12' W 123°48'0 0.0
2018-Feb-17 09:30N 46°12' W 123°48'0 0.0
2018-Feb-17 09:00N 46°12' W 123°48'0 0.0
2018-Feb-17 08:30N 46°12' W 123°48'0 0.0
2018-Feb-17 08:00N 46°12' W 123°48'0 0.0
2018-Feb-17 07:30N 46°12' W 123°48'0 0.0
2018-Feb-17 07:00N 46°12' W 123°48'0 0.0
2018-Feb-17 06:30N 46°12' W 123°48'0 0.0
2018-Feb-17 06:00N 46°12' W 123°48'0 0.0
2018-Feb-17 05:30N 46°12' W 123°48'0 0.0
2018-Feb-17 05:00N 46°12' W 123°48'0 0.0
2018-Feb-17 04:30N 46°12' W 123°48'0 0.0
2018-Feb-17 03:33N 46°12' W 123°48'0 0.0
2018-Feb-17 03:15N 46°12' W 123°48'0 0.0
2018-Feb-17 03:00N 46°12' W 123°48'0 0.0
2018-Feb-17 02:30N 46°12' W 123°48'0 0.0
2018-Feb-17 02:00N 46°12' W 123°48'0 0.0
2018-Feb-17 01:30N 46°12' W 123°48'0 0.0
2018-Feb-17 01:00N 46°12' W 123°48'0 0.0
2018-Feb-17 00:30N 46°12' W 123°48'0 0.0
2018-Feb-17 00:00N 46°12' W 123°48'0 0.0
2018-Feb-16 23:27N 46°12' W 123°48'0 0.0
2018-Feb-16 23:00N 46°12' W 123°48'0 0.0
2018-Feb-16 22:30N 46°12' W 123°48'0 0.0
2018-Feb-16 22:00N 46°12' W 123°48'0 0.0
2018-Feb-16 21:30N 46°12' W 123°48'0 0.0
2018-Feb-16 20:24N 46°12' W 123°48'0 0.0
2018-Feb-16 20:00N 46°12' W 123°48'0 0.0
2018-Feb-16 19:24N 46°12' W 123°48'0 0.0
2018-Feb-16 19:00N 46°12' W 123°48'0 0.0
2018-Feb-16 18:30N 46°12' W 123°48'0 0.0
2018-Feb-16 17:57N 46°12' W 123°48'0 0.0
2018-Feb-16 17:30N 46°12' W 123°48'0 0.0
2018-Feb-16 17:00N 46°12' W 123°48'0 0.0
2018-Feb-16 16:09N 46°12' W 123°48'0 0.0
2018-Feb-16 15:51N 46°12' W 123°48'0 0.0
2018-Feb-16 15:30N 46°12' W 123°48'0 0.0
2018-Feb-16 15:00N 46°12' W 123°48'0 0.0
2018-Feb-16 14:30N 46°12' W 123°48'0 0.0
2018-Feb-16 14:00N 46°12' W 123°48'0 0.0
2018-Feb-16 13:30N 46°12' W 123°48'0 0.0
2018-Feb-16 13:00N 46°12' W 123°48'0 0.0
2018-Feb-16 12:30N 46°12' W 123°48'0 0.0
2018-Feb-16 11:45N 46°12' W 123°48'0 0.0
2018-Feb-16 11:30N 46°12' W 123°48'0 0.0
2018-Feb-16 11:00N 46°12' W 123°48'0 0.0
2018-Feb-16 10:30N 46°12' W 123°48'0 0.0
2018-Feb-16 10:00N 46°12' W 123°48'0 0.0
2018-Feb-16 09:03N 46°12' W 123°48'0 0.0
2018-Feb-16 09:00N 46°12' W 123°48'0 0.0
2018-Feb-16 08:30N 46°12' W 123°48'0 0.0
2018-Feb-16 08:00N 46°12' W 123°48'0 0.0
2018-Feb-16 07:30N 46°12' W 123°48'0 0.0
2018-Feb-16 07:00N 46°12' W 123°48'0 0.0
2018-Feb-16 06:30N 46°12' W 123°48'0 0.0
2018-Feb-16 06:00N 46°12' W 123°48'0 0.0
2018-Feb-16 05:30N 46°12' W 123°48'0 0.0
2018-Feb-16 05:00N 46°12' W 123°48'0 0.0
2018-Feb-16 04:30N 46°12' W 123°48'0 0.0
2018-Feb-16 04:00N 46°12' W 123°48'0 0.0
2018-Feb-16 03:30N 46°12' W 123°48'0 0.0
2018-Feb-16 03:00N 46°12' W 123°48'0 0.0
2018-Feb-16 02:27N 46°12' W 123°48'0 0.0
2018-Feb-16 02:00N 46°12' W 123°48'0 0.0
2018-Feb-16 01:30N 46°12' W 123°48'0 0.0
2018-Feb-16 01:00N 46°12' W 123°48'0 0.0
2018-Feb-16 00:24N 46°12' W 123°48'0 0.0
2018-Feb-16 00:00N 46°12' W 123°48'0 0.0
2018-Feb-15 23:30N 46°12' W 123°48'0 0.0
2018-Feb-15 23:00N 46°12' W 123°48'0 0.0
2018-Feb-15 22:30N 46°12' W 123°48'0 0.0
2018-Feb-15 22:00N 46°12' W 123°48'0 0.0
2018-Feb-15 21:30N 46°12' W 123°48'0 0.0
2018-Feb-15 21:00N 46°12' W 123°48'0 0.0
2018-Feb-15 20:30N 46°12' W 123°48'0 0.0
2018-Feb-15 20:00N 46°12' W 123°48'0 0.0
2018-Feb-15 19:30N 46°12' W 123°48'0 0.0
2018-Feb-15 19:00N 46°12' W 123°48'0 0.0
2018-Feb-15 18:18N 46°12' W 123°48'0 0.0
2018-Feb-15 18:00N 46°12' W 123°48'0 0.0
2018-Feb-15 17:30N 46°12' W 123°48'0 0.0
2018-Feb-15 17:00N 46°12' W 123°48'0 0.0
2018-Feb-15 16:30N 46°12' W 123°48'0 0.0
2018-Feb-15 16:00N 46°12' W 123°48'0 0.0
2018-Feb-15 15:30N 46°12' W 123°48'0 0.0
2018-Feb-15 15:00N 46°12' W 123°48'0 0.0
2018-Feb-15 14:30N 46°12' W 123°48'0 0.0
2018-Feb-15 14:00N 46°12' W 123°48'0 0.0
2018-Feb-15 13:30N 46°12' W 123°48'0 0.0
2018-Feb-15 13:00N 46°12' W 123°48'0 0.0
2018-Feb-15 12:30N 46°12' W 123°48'  

Dump ship's entire track history